createdAt,value
2023-05-01T00:01:26.870Z,101242.41
2023-05-01T00:03:54.695Z,101242.66
2023-05-01T00:06:21.195Z,101238.56
2023-05-01T00:08:47.808Z,101231.75
2023-05-01T00:11:14.571Z,101228.78
2023-05-01T00:13:41.205Z,101225.78
2023-05-01T00:16:12.540Z,101232.38
2023-05-01T00:18:39.355Z,101224.50
2023-05-01T00:21:05.910Z,101229.31
2023-05-01T00:23:32.288Z,101222.72
2023-05-01T00:25:58.730Z,101225.16
2023-05-01T00:28:25.229Z,101213.97
2023-05-01T00:30:51.872Z,101216.69
2023-05-01T00:33:18.182Z,101214.25
2023-05-01T00:35:45.334Z,101217.59
2023-05-01T00:38:12.044Z,101218.09
2023-05-01T00:40:45.194Z,101214.56
2023-05-01T00:43:12.740Z,101204.44
2023-05-01T00:45:40.473Z,101209.09
2023-05-01T00:48:07.166Z,101207.75
2023-05-01T00:50:33.652Z,101205.59
2023-05-01T00:53:00.318Z,101205.06
2023-05-01T00:55:26.952Z,101200.97
2023-05-01T00:57:55.149Z,101199.28
2023-05-01T01:00:24.430Z,101196.53
2023-05-01T01:02:51.268Z,101200.13
2023-05-01T01:05:18.827Z,101195.69
2023-05-01T01:07:55.826Z,101186.94
2023-05-01T01:10:22.125Z,101177.94
2023-05-01T01:13:21.511Z,101188.50
2023-05-01T01:16:04.131Z,101174.53
2023-05-01T01:18:40.217Z,101184.59
2023-05-01T01:21:38.113Z,101180.25
2023-05-01T01:24:46.336Z,101170.47
2023-05-01T01:27:39.764Z,101167.16
2023-05-01T01:30:31.861Z,101172.59
2023-05-01T01:33:36.158Z,101165.00
2023-05-01T01:36:09.121Z,101167.78
2023-05-01T01:38:42.534Z,101158.72
2023-05-01T01:41:13.535Z,101152.06
2023-05-01T01:43:45.755Z,101158.06
2023-05-01T01:46:12.854Z,101147.91
2023-05-01T01:48:43.375Z,101147.41
2023-05-01T01:51:14.631Z,101143.28
2023-05-01T01:53:43.394Z,101147.91
2023-05-01T01:56:10.731Z,101139.59
2023-05-01T01:58:39.861Z,101137.53
2023-05-01T02:01:07.560Z,101133.91
2023-05-01T02:03:34.955Z,101134.22
2023-05-01T02:06:02.532Z,101131.44
2023-05-01T02:08:31.674Z,101131.75
2023-05-01T02:11:02.050Z,101122.03
2023-05-01T02:13:29.981Z,101131.84
2023-05-01T02:15:58.811Z,101120.38
2023-05-01T02:18:29.335Z,101112.72
2023-05-01T02:20:57.994Z,101117.84
2023-05-01T02:23:26.145Z,101112.66
2023-05-01T02:25:53.666Z,101115.06
2023-05-01T02:28:26.784Z,101112.66
2023-05-01T02:30:53.342Z,101113.19
2023-05-01T02:33:19.760Z,101108.47
2023-05-01T02:35:47.436Z,101100.75
2023-05-01T02:38:16.184Z,101096.13
2023-05-01T02:40:52.057Z,101095.53
2023-05-01T02:43:21.261Z,101087.66
2023-05-01T02:45:49.274Z,101085.97
2023-05-01T02:48:20.344Z,101083.25
2023-05-01T02:50:48.613Z,101079.50
2023-05-01T02:53:16.265Z,101075.41
2023-05-01T02:55:43.302Z,101074.00
2023-05-01T02:58:15.334Z,101073.22
2023-05-01T03:00:42.190Z,101078.63
2023-05-01T03:03:08.742Z,101074.72
2023-05-01T03:05:35.181Z,101070.56
2023-05-01T03:08:01.623Z,101061.00
2023-05-01T03:10:28.096Z,101066.97
2023-05-01T03:12:54.412Z,101065.31
2023-05-01T03:15:20.795Z,101054.91
2023-05-01T03:17:47.403Z,101049.97
2023-05-01T03:20:13.822Z,101055.31
2023-05-01T03:22:40.179Z,101049.03
2023-05-01T03:25:06.999Z,101051.50
2023-05-01T03:27:33.389Z,101051.19
2023-05-01T03:29:59.697Z,101046.00
2023-05-01T03:32:26.235Z,101045.44
2023-05-01T03:34:52.680Z,101048.44
2023-05-01T03:37:19.084Z,101037.50
2023-05-01T03:39:47.212Z,101041.81
2023-05-01T03:42:13.564Z,101037.06
2023-05-01T03:44:39.940Z,101027.81
2023-05-01T03:47:06.497Z,101034.09
2023-05-01T03:49:32.858Z,101033.78
2023-05-01T03:51:59.183Z,101028.78
2023-05-01T03:54:25.929Z,101029.34
2023-05-01T03:56:52.579Z,101022.22
2023-05-01T03:59:18.964Z,101028.22
2023-05-01T04:01:45.882Z,101030.34
2023-05-01T04:04:12.347Z,101026.22
2023-05-01T04:06:38.905Z,101022.59
2023-05-01T04:09:05.429Z,101022.34
2023-05-01T04:11:31.804Z,101024.28
2023-05-01T04:13:58.153Z,101024.28
2023-05-01T04:16:24.915Z,101027.25
2023-05-01T04:18:52.756Z,101021.47
2023-05-01T04:21:19.313Z,101018.69
2023-05-01T04:23:45.814Z,101017.84
2023-05-01T04:26:12.195Z,101012.16
2023-05-01T04:28:38.697Z,101011.59
2023-05-01T04:31:05.245Z,101016.97
2023-05-01T04:33:31.678Z,101018.28
2023-05-01T04:35:58.504Z,101019.88
2023-05-01T04:38:24.907Z,101014.09
2023-05-01T04:40:52.334Z,101010.81
2023-05-01T04:43:18.650Z,101020.31
2023-05-01T04:45:45.157Z,101018.41
2023-05-01T04:48:11.641Z,101014.63
2023-05-01T04:50:38.159Z,101020.22
2023-05-01T04:53:04.535Z,101020.50
2023-05-01T04:55:31.366Z,101021.06
2023-05-01T04:57:57.789Z,101016.91
2023-05-01T05:00:24.171Z,101016.91
2023-05-01T05:02:50.670Z,101017.19
2023-05-01T05:05:17.125Z,101014.53
2023-05-01T05:07:43.479Z,101024.34
2023-05-01T05:10:10.335Z,101016.44
2023-05-01T05:12:36.788Z,101020.53
2023-05-01T05:15:03.270Z,101011.88
2023-05-01T05:17:29.742Z,101012.13
2023-05-01T05:19:56.280Z,101013.78
2023-05-01T05:22:23.614Z,101016.75
2023-05-01T05:24:55.708Z,101008.34
2023-05-01T05:27:22.006Z,101016.31
2023-05-01T05:29:48.344Z,101018.28
2023-05-01T05:32:14.840Z,101017.03
2023-05-01T05:34:41.179Z,101019.84
2023-05-01T05:37:08.364Z,101019.06
2023-05-01T05:39:35.115Z,101019.97
2023-05-01T05:42:01.444Z,101023.81
2023-05-01T05:44:27.819Z,101012.47
2023-05-01T05:46:54.234Z,101014.97
2023-05-01T05:49:20.621Z,101013.47
2023-05-01T05:51:46.997Z,101023.75
2023-05-01T05:54:13.445Z,101012.13
2023-05-01T05:56:39.828Z,101015.66
2023-05-01T05:59:06.464Z,101019.53
2023-05-01T06:01:33.020Z,101020.91
2023-05-01T06:03:59.324Z,101020.72
2023-05-01T06:06:26.338Z,101009.38
2023-05-01T06:08:52.737Z,101014.84
2023-05-01T06:11:21.465Z,101018.75
2023-05-01T06:13:47.815Z,101013.06
2023-05-01T06:16:15.209Z,101017.78
2023-05-01T06:18:42.402Z,101023.56
2023-05-01T06:21:10.312Z,101019.81
2023-05-01T06:23:37.123Z,101025.25
2023-05-01T06:29:44.299Z,101012.28
2023-05-01T06:32:10.795Z,101010.38
2023-05-01T06:34:37.122Z,101006.59
2023-05-01T06:37:06.343Z,101000.06
2023-05-01T06:39:32.814Z,101015.97
2023-05-01T06:41:59.299Z,101016.50
2023-05-01T06:44:25.752Z,101004.53
2023-05-01T06:46:52.261Z,101008.38
2023-05-01T06:49:18.788Z,101003.78
2023-05-01T06:51:45.316Z,101006.84
2023-05-01T06:54:11.616Z,101011.19
2023-05-01T06:56:38.066Z,100989.91
2023-05-01T06:59:04.525Z,101005.72
2023-05-01T07:01:32.701Z,101002.50
2023-05-01T07:04:00.354Z,100993.25
2023-05-01T07:06:27.550Z,100995.44
2023-05-01T07:08:54.030Z,101000.34
2023-05-01T07:11:20.422Z,100991.91
2023-05-01T07:13:46.766Z,100997.13
2023-05-01T07:16:13.314Z,101000.09
2023-05-01T07:18:39.760Z,100991.97
2023-05-01T07:21:06.274Z,100992.25
2023-05-01T07:23:32.733Z,100987.59
2023-05-01T07:25:59.068Z,100986.28
2023-05-01T07:28:25.518Z,100991.75
2023-05-01T07:30:52.006Z,100990.94
2023-05-01T07:33:18.691Z,100986.84
2023-05-01T07:35:45.250Z,100982.53
2023-05-01T07:38:12.053Z,100982.53
2023-05-01T07:40:38.602Z,100985.28
2023-05-01T07:43:05.218Z,100977.06
2023-05-01T07:45:32.031Z,100975.72
2023-05-01T07:47:58.482Z,100977.91
2023-05-01T07:50:26.033Z,100979.84
2023-05-01T07:52:52.747Z,100980.91
2023-05-01T07:55:19.167Z,100979.81
2023-05-01T07:57:45.639Z,100979.53
2023-05-01T08:00:12.617Z,100980.63
2023-05-01T08:02:39.195Z,100979.28
2023-05-01T08:05:06.033Z,100981.19
2023-05-01T08:07:32.532Z,100974.09
2023-05-01T08:10:00.602Z,100978.19
2023-05-01T08:12:28.842Z,100977.38
2023-05-01T08:14:55.251Z,100972.72
2023-05-01T08:17:21.725Z,100977.09
2023-05-01T08:19:48.235Z,100976.56
2023-05-01T08:22:14.601Z,100978.72
2023-05-01T08:24:42.682Z,100980.09
2023-05-01T08:27:09.555Z,100980.69
2023-05-01T08:29:35.949Z,100975.47
2023-05-01T08:32:02.437Z,100967.22
2023-05-01T08:34:29.096Z,100973.28
2023-05-01T08:36:55.506Z,100968.34
2023-05-01T08:39:21.938Z,100964.22
2023-05-01T08:41:48.754Z,100970.25
2023-05-01T08:44:16.696Z,100969.38
2023-05-01T08:46:55.747Z,100968.81
2023-05-01T08:49:23.899Z,100964.69
2023-05-01T08:51:52.871Z,100966.56
2023-05-01T08:54:20.713Z,100967.91
2023-05-01T08:56:47.782Z,100972.03
2023-05-01T08:59:15.016Z,100962.47
2023-05-01T09:01:42.823Z,100967.91
2023-05-01T09:04:10.732Z,100978.06
2023-05-01T09:06:37.752Z,100964.31
2023-05-01T09:09:04.426Z,100971.13
2023-05-01T09:11:30.824Z,100961.97
2023-05-01T09:13:57.349Z,100957.59
2023-05-01T09:16:23.910Z,100959.78
2023-05-01T09:18:50.562Z,100958.97
2023-05-01T09:21:17.323Z,100956.19
2023-05-01T09:23:43.733Z,100954.84
2023-05-01T09:26:10.388Z,100958.31
2023-05-01T09:28:58.138Z,100957.16
2023-05-01T09:31:29.451Z,100960.00
2023-05-01T09:34:00.946Z,100956.63
2023-05-01T09:36:30.992Z,100957.44
2023-05-01T09:38:58.057Z,100952.69
2023-05-01T09:41:24.539Z,100956.50
2023-05-01T09:43:52.927Z,100956.25
2023-05-01T09:46:20.058Z,100951.38
2023-05-01T09:48:58.890Z,100946.75
2023-05-01T09:51:33.316Z,100943.91
2023-05-01T09:54:02.135Z,100948.78
2023-05-01T09:56:33.835Z,100949.59
2023-05-01T09:59:18.893Z,100950.75
2023-05-01T10:01:48.259Z,100948.78
2023-05-01T10:04:14.659Z,100951.28
2023-05-01T10:06:41.397Z,100948.34
2023-05-01T10:09:16.588Z,100950.75
2023-05-01T10:11:57.550Z,100946.72
2023-05-01T10:14:25.560Z,100950.03
2023-05-01T10:16:53.206Z,100946.59
2023-05-01T10:19:21.270Z,100948.69
2023-05-01T10:21:47.697Z,100945.81
2023-05-01T10:24:16.170Z,100934.41
2023-05-01T10:26:46.327Z,100938.78
2023-05-01T10:29:12.999Z,100937.47
2023-05-01T10:31:41.532Z,100939.78
2023-05-01T10:34:09.196Z,100932.44
2023-05-01T10:36:44.809Z,100944.59
2023-05-01T10:39:31.267Z,100928.00
2023-05-01T10:41:57.638Z,100921.50
2023-05-01T10:44:26.242Z,100917.69
2023-05-01T10:46:53.238Z,100914.41
2023-05-01T10:49:19.802Z,100911.84
2023-05-01T10:51:58.349Z,100913.75
2023-05-01T10:54:29.697Z,100907.53
2023-05-01T10:56:58.574Z,100904.19
2023-05-01T10:59:25.610Z,100895.03
2023-05-01T11:01:53.104Z,100891.97
2023-05-01T11:04:19.527Z,100893.28
2023-05-01T11:07:17.662Z,100891.50
2023-05-01T11:09:57.380Z,100890.63
2023-05-01T11:12:46.064Z,100885.25
2023-05-01T11:15:13.505Z,100892.56
2023-05-01T11:17:39.981Z,100881.63
2023-05-01T11:20:07.724Z,100888.50
2023-05-01T11:22:35.126Z,100891.75
2023-05-01T11:25:04.660Z,100884.59
2023-05-01T11:27:31.514Z,100882.69
2023-05-01T11:30:00.979Z,100888.81
2023-05-01T11:32:29.961Z,100881.56
2023-05-01T11:34:57.019Z,100884.41
2023-05-01T11:37:44.212Z,100884.59
2023-05-01T11:40:26.334Z,100880.59
2023-05-01T11:43:06.892Z,100877.31
2023-05-01T11:45:35.052Z,100872.06
2023-05-01T11:48:04.416Z,100872.84
2023-05-01T11:50:36.097Z,100871.78
2023-05-01T11:53:15.411Z,100871.19
2023-05-01T11:55:42.131Z,100866.50
2023-05-01T11:58:08.797Z,100868.50
2023-05-01T12:00:38.037Z,100865.09
2023-05-01T12:03:07.091Z,100864.31
2023-05-01T12:05:36.848Z,100868.97
2023-05-01T12:08:23.787Z,100860.41
2023-05-01T12:10:56.135Z,100865.34
2023-05-01T12:13:23.583Z,100868.63
2023-05-01T12:15:52.819Z,100861.75
2023-05-01T12:18:21.407Z,100861.47
2023-05-01T12:20:51.751Z,100859.91
2023-05-01T12:23:21.759Z,100854.94
2023-05-01T12:25:48.244Z,100856.56
2023-05-01T12:28:20.355Z,100856.78
2023-05-01T12:30:49.023Z,100864.84
2023-05-01T12:33:20.152Z,100860.44
2023-05-01T12:35:50.503Z,100864.22
2023-05-01T12:38:21.480Z,100863.47
2023-05-01T12:40:54.601Z,100864.50
2023-05-01T12:43:32.626Z,100859.34
2023-05-01T12:45:59.587Z,100858.78
2023-05-01T12:48:26.699Z,100854.38
2023-05-01T12:50:56.875Z,100854.09
2023-05-01T12:53:25.167Z,100847.03
2023-05-01T12:55:54.070Z,100845.81
2023-05-01T12:58:20.849Z,100841.94
2023-05-01T13:00:52.166Z,100845.00
2023-05-01T13:03:26.872Z,100837.13
2023-05-01T13:06:03.870Z,100842.03
2023-05-01T13:08:32.582Z,100855.47
2023-05-01T13:11:01.057Z,100842.78
2023-05-01T13:13:34.548Z,100840.91
2023-05-01T13:16:12.730Z,100831.78
2023-05-01T13:18:58.008Z,100835.84
2023-05-01T13:21:24.889Z,100840.75
2023-05-01T13:23:59.883Z,100841.09
2023-05-01T13:26:35.564Z,100831.44
2023-05-01T13:29:03.871Z,100834.78
2023-05-01T13:31:30.477Z,100834.78
2023-05-01T13:33:58.837Z,100835.59
2023-05-01T13:36:27.639Z,100834.69
2023-05-01T13:38:55.963Z,100837.50
2023-05-01T13:41:25.651Z,100836.84
2023-05-01T13:43:53.976Z,100837.06
2023-05-01T13:46:23.072Z,100839.81
2023-05-01T13:48:50.045Z,100838.75
2023-05-01T13:51:24.876Z,100830.94
2023-05-01T13:53:53.714Z,100838.16
2023-05-01T13:56:21.428Z,100834.84
2023-05-01T13:58:47.821Z,100831.97
2023-05-01T14:01:20.133Z,100832.25
2023-05-01T14:03:47.575Z,100834.00
2023-05-01T14:06:19.303Z,100840.47
2023-05-01T14:08:47.785Z,100831.47
2023-05-01T14:11:14.536Z,100838.06
2023-05-01T14:13:42.818Z,100838.72
2023-05-01T14:16:11.675Z,100853.63
2023-05-01T14:18:47.404Z,100848.56
2023-05-01T14:21:18.500Z,100857.06
2023-05-01T14:23:45.388Z,100859.25
2023-05-01T14:26:17.895Z,100864.81
2023-05-01T14:28:46.267Z,100870.63
2023-05-01T14:31:23.504Z,100873.78
2023-05-01T14:33:55.019Z,100878.44
2023-05-01T14:36:21.444Z,100882.91
2023-05-01T14:38:49.293Z,100893.19
2023-05-01T14:41:17.817Z,100885.13
2023-05-01T14:43:44.328Z,100884.97
2023-05-01T14:46:33.261Z,100893.63
2023-05-01T14:49:01.342Z,100912.44
2023-05-01T14:51:28.594Z,100920.53
2023-05-01T14:53:55.528Z,100922.66
2023-05-01T14:56:22.874Z,100941.56
2023-05-01T14:58:49.926Z,100933.63
2023-05-01T15:01:16.914Z,100933.72
2023-05-01T15:03:43.807Z,100944.59
2023-05-01T15:06:10.571Z,100955.97
2023-05-01T15:08:38.255Z,100963.19
2023-05-01T15:11:04.942Z,100965.44
2023-05-01T15:13:34.315Z,100959.47
2023-05-01T15:16:01.005Z,100961.13
2023-05-01T15:18:27.464Z,100960.06
2023-05-01T15:20:53.859Z,100966.09
2023-05-01T15:23:20.685Z,100960.69
2023-05-01T15:25:47.998Z,100963.41
2023-05-01T15:28:14.616Z,100955.72
2023-05-01T15:30:44.762Z,100962.31
2023-05-01T15:33:11.399Z,100971.66
2023-05-01T15:35:38.027Z,100960.69
2023-05-01T15:38:04.671Z,100965.34
2023-05-01T15:40:31.872Z,100962.03
2023-05-01T15:42:58.507Z,100965.06
2023-05-01T15:45:25.008Z,100974.09
2023-05-01T15:47:51.437Z,100957.97
2023-05-01T15:50:17.849Z,100965.06
2023-05-01T15:52:44.384Z,100962.88
2023-05-01T15:55:11.782Z,100965.31
2023-05-01T15:57:38.188Z,100971.06
2023-05-01T16:00:05.119Z,100965.88
2023-05-01T16:02:32.646Z,100974.91
2023-05-01T16:05:00.126Z,100972.44
2023-05-01T16:07:29.209Z,100972.72
2023-05-01T16:09:56.532Z,100979.28
2023-05-01T16:12:23.090Z,100984.50
2023-05-01T16:14:49.599Z,100984.75
2023-05-01T16:17:18.344Z,100990.22
2023-05-01T16:19:44.847Z,100994.59
2023-05-01T16:22:11.642Z,101000.09
2023-05-01T16:24:38.461Z,100993.25
2023-05-01T16:27:04.825Z,100989.97
2023-05-01T16:29:35.338Z,100999.03
2023-05-01T16:32:04.545Z,101000.66
2023-05-01T16:34:31.618Z,101003.38
2023-05-01T16:36:58.215Z,101009.38
2023-05-01T16:39:24.668Z,101012.13
2023-05-01T16:41:53.414Z,101023.91
2023-05-01T16:44:21.145Z,101022.78
2023-05-01T16:46:55.827Z,101029.63
2023-05-01T16:49:23.728Z,101029.63
2023-05-01T16:51:50.556Z,101032.38
2023-05-01T16:54:18.303Z,101036.72
2023-05-01T16:56:44.657Z,101042.22
2023-05-01T16:59:11.013Z,101040.59
2023-05-01T17:01:37.486Z,101038.13
2023-05-01T17:04:04.140Z,101029.66
2023-05-01T17:06:31.152Z,101039.53
2023-05-01T17:08:57.722Z,101041.72
2023-05-01T17:11:24.716Z,101037.06
2023-05-01T17:13:52.401Z,101036.78
2023-05-01T17:16:19.355Z,101040.06
2023-05-01T17:18:46.581Z,101041.72
2023-05-01T17:21:12.969Z,101035.44
2023-05-01T17:23:39.315Z,101038.16
2023-05-01T17:26:05.884Z,101032.41
2023-05-01T17:28:32.257Z,101041.19
2023-05-01T17:30:58.722Z,101034.59
2023-05-01T17:33:25.194Z,101043.91
2023-05-01T17:35:51.765Z,101040.63
2023-05-01T17:38:18.095Z,101053.22
2023-05-01T17:40:47.153Z,101049.38
2023-05-01T17:43:13.569Z,101046.66
2023-05-01T17:45:40.132Z,101049.38
2023-05-01T17:48:06.697Z,101051.06
2023-05-01T17:50:33.088Z,101050.75
2023-05-01T17:52:59.420Z,101054.31
2023-05-01T17:55:27.513Z,101063.31
2023-05-01T17:57:53.871Z,101058.38
2023-05-01T18:00:21.125Z,101055.91
2023-05-01T18:02:48.121Z,101055.38
2023-05-01T18:05:14.771Z,101046.63
2023-05-01T18:07:41.237Z,101055.38
2023-05-01T18:10:08.426Z,101059.22
2023-05-01T18:12:35.136Z,101058.13
2023-05-01T18:15:01.525Z,101064.69
2023-05-01T18:17:28.096Z,101072.06
2023-05-01T18:19:54.880Z,101078.91
2023-05-01T18:22:21.305Z,101087.63
2023-05-01T18:24:48.178Z,101077.53
2023-05-01T18:27:14.570Z,101079.44
2023-05-01T18:29:40.913Z,101081.34
2023-05-01T18:32:09.364Z,101083.25
2023-05-01T18:34:36.438Z,101087.06
2023-05-01T18:37:02.814Z,101087.03
2023-05-01T18:39:29.256Z,101085.94
2023-05-01T18:41:55.618Z,101085.09
2023-05-01T18:44:22.269Z,101085.91
2023-05-01T18:46:48.756Z,101086.19
2023-05-01T18:49:15.444Z,101101.19
2023-05-01T18:51:41.807Z,101097.88
2023-05-01T18:54:09.842Z,101106.03
2023-05-01T18:56:36.379Z,101096.19
2023-05-01T18:59:02.707Z,101106.03
2023-05-01T19:01:29.221Z,101110.38
2023-05-01T19:03:58.923Z,101116.66
2023-05-01T19:06:26.613Z,101121.06
2023-05-01T19:08:53.570Z,101127.03
2023-05-01T19:11:20.079Z,101127.25
2023-05-01T19:13:46.671Z,101131.59
2023-05-01T19:16:13.656Z,101134.38
2023-05-01T19:18:40.787Z,101134.59
2023-05-01T19:21:07.322Z,101134.06
2023-05-01T19:23:35.617Z,101135.91
2023-05-01T19:26:04.196Z,101141.94
2023-05-01T19:28:31.146Z,101136.47
2023-05-01T19:30:57.650Z,101145.47
2023-05-01T19:33:24.022Z,101151.13
2023-05-01T19:35:50.529Z,101154.38
2023-05-01T19:38:17.054Z,101151.91
2023-05-01T19:40:44.818Z,101157.63
2023-05-01T19:43:13.252Z,101157.34
2023-05-01T19:45:40.023Z,101163.06
2023-05-01T19:48:06.837Z,101163.31
2023-05-01T19:50:33.573Z,101169.63
2023-05-01T19:53:00.027Z,101173.66
2023-05-01T19:55:26.374Z,101174.41
2023-05-01T19:57:52.753Z,101181.47
2023-05-01T20:00:19.389Z,101187.25
2023-05-01T20:02:47.507Z,101181.19
2023-05-01T20:05:14.290Z,101190.94
2023-05-01T20:07:41.336Z,101190.94
2023-05-01T20:10:09.583Z,101187.41
2023-05-01T20:12:35.878Z,101190.13
2023-05-01T20:15:02.304Z,101189.53
2023-05-01T20:17:28.890Z,101197.97
2023-05-01T20:19:55.290Z,101192.16
2023-05-01T20:22:21.675Z,101203.22
2023-05-01T20:24:48.044Z,101200.63
2023-05-01T20:27:15.601Z,101212.88
2023-05-01T20:29:42.341Z,101213.13
2023-05-01T20:32:08.890Z,101217.00
2023-05-01T20:34:35.226Z,101209.78
2023-05-01T20:37:01.706Z,101217.91
2023-05-01T20:39:28.759Z,101226.66
2023-05-01T20:41:56.661Z,101223.38
2023-05-01T20:44:25.959Z,101217.94
2023-05-01T20:46:52.597Z,101216.66
2023-05-01T20:49:20.405Z,101211.53
2023-05-01T20:51:46.850Z,101216.94
2023-05-01T20:54:13.185Z,101213.03
2023-05-01T20:56:39.546Z,101218.47
2023-05-01T20:59:06.846Z,101223.44
2023-05-01T21:01:33.231Z,101227.84
2023-05-01T21:03:59.972Z,101220.00
2023-05-01T21:06:27.338Z,101231.63
2023-05-01T21:08:53.950Z,101230.81
2023-05-01T21:11:20.910Z,101239.53
2023-05-01T21:13:47.401Z,101234.88
2023-05-01T21:16:18.261Z,101240.84
2023-05-01T21:18:44.688Z,101234.81
2023-05-01T21:21:16.308Z,101234.56
2023-05-01T21:23:48.919Z,101238.63
2023-05-01T21:26:16.266Z,101241.00
2023-05-01T21:28:43.569Z,101244.47
2023-05-01T21:31:13.641Z,101247.09
2023-05-01T21:33:43.284Z,101250.81
2023-05-01T21:36:10.479Z,101251.41
2023-05-01T21:38:37.106Z,101255.69
2023-05-01T21:41:03.585Z,101262.13
2023-05-01T21:43:32.594Z,101252.91
2023-05-01T21:45:58.984Z,101271.03
2023-05-01T21:48:25.664Z,101275.00
2023-05-01T21:50:52.141Z,101279.34
2023-05-01T21:53:18.492Z,101277.03
2023-05-01T21:55:46.613Z,101277.53
2023-05-01T21:58:13.738Z,101281.72
2023-05-01T22:00:41.631Z,101287.03
2023-05-01T22:03:08.859Z,101280.94
2023-05-01T22:05:35.287Z,101289.53
2023-05-01T22:08:01.691Z,101293.00
2023-05-01T22:10:28.664Z,101300.97
2023-05-01T22:12:55.117Z,101291.72
2023-05-01T22:15:21.536Z,101303.09
2023-05-01T22:17:48.122Z,101300.22
2023-05-01T22:20:14.628Z,101305.09
2023-05-01T22:22:42.979Z,101302.00
2023-05-01T22:25:11.546Z,101298.94
2023-05-01T22:27:38.291Z,101303.09
2023-05-01T22:30:05.428Z,101299.19
2023-05-01T22:32:32.270Z,101304.16
2023-05-01T22:34:58.628Z,101313.88
2023-05-01T22:37:25.690Z,101311.66
2023-05-01T22:39:53.155Z,101316.03
2023-05-01T22:42:19.877Z,101321.34
2023-05-01T22:44:46.284Z,101327.28
2023-05-01T22:47:12.710Z,101339.22
2023-05-01T22:49:39.165Z,101334.13
2023-05-01T22:52:05.609Z,101327.72
2023-05-01T22:54:32.007Z,101340.06
2023-05-01T22:56:58.453Z,101337.94
2023-05-01T22:59:25.841Z,101329.66
2023-05-01T23:01:52.348Z,101337.56
2023-05-01T23:04:18.793Z,101335.91
2023-05-01T23:06:45.365Z,101338.63
2023-05-01T23:09:12.076Z,101339.69
2023-05-01T23:11:40.170Z,101344.31
2023-05-01T23:14:06.597Z,101344.19
2023-05-01T23:16:41.456Z,101345.50
2023-05-01T23:19:24.586Z,101346.53
2023-05-01T23:22:02.222Z,101353.16
2023-05-01T23:24:40.381Z,101353.75
2023-05-01T23:27:06.888Z,101354.09
2023-05-01T23:29:33.262Z,101350.34
2023-05-01T23:31:59.818Z,101362.50
2023-05-01T23:34:28.412Z,101362.63
2023-05-01T23:36:54.782Z,101366.38
2023-05-01T23:39:21.209Z,101360.25
2023-05-01T23:41:47.595Z,101364.63
2023-05-01T23:44:13.962Z,101371.00
2023-05-01T23:46:40.590Z,101373.84
2023-05-01T23:49:06.996Z,101367.22
2023-05-01T23:51:33.422Z,101370.31
2023-05-01T23:54:00.372Z,101368.41
2023-05-01T23:56:26.812Z,101366.75
2023-05-01T23:58:53.138Z,101375.38
